sensor_id;sensor_type;location;lat;lon;timestamp;pressure;altitude;pressure_sealevel;temperature;humidity
41062;BME280;26812;42.662;23.352;2023-04-04T00:01:01;93498.81;;;9.14;84.72
41062;BME280;26812;42.662;23.352;2023-04-04T00:03:26;93490.72;;;9.26;84.22
41062;BME280;26812;42.662;23.352;2023-04-04T00:05:51;93498.78;;;9.26;84.32
41062;BME280;26812;42.662;23.352;2023-04-04T00:08:16;93463.88;;;9.14;84.16
41062;BME280;26812;42.662;23.352;2023-04-04T00:10:42;93499.47;;;9.51;84.42
41062;BME280;26812;42.662;23.352;2023-04-04T00:13:07;93508.06;;;9.56;84.02
41062;BME280;26812;42.662;23.352;2023-04-04T00:15:33;93505.81;;;9.74;81.85
41062;BME280;26812;42.662;23.352;2023-04-04T00:18:00;93513.09;;;9.74;82.03
41062;BME280;26812;42.662;23.352;2023-04-04T00:20:26;93513.00;;;9.70;82.01
41062;BME280;26812;42.662;23.352;2023-04-04T00:22:58;93525.50;;;9.62;82.92
41062;BME280;26812;42.662;23.352;2023-04-04T00:25:24;93515.53;;;9.79;83.43
41062;BME280;26812;42.662;23.352;2023-04-04T00:27:49;93505.38;;;9.72;82.72
41062;BME280;26812;42.662;23.352;2023-04-04T00:30:15;93511.56;;;9.88;83.00
41062;BME280;26812;42.662;23.352;2023-04-04T00:32:40;93501.38;;;9.50;84.10
41062;BME280;26812;42.662;23.352;2023-04-04T00:35:06;93502.50;;;9.65;83.51
41062;BME280;26812;42.662;23.352;2023-04-04T00:37:31;93504.31;;;9.61;84.54
41062;BME280;26812;42.662;23.352;2023-04-04T00:39:57;93495.41;;;9.73;84.39
41062;BME280;26812;42.662;23.352;2023-04-04T00:42:22;93488.47;;;9.72;83.99
41062;BME280;26812;42.662;23.352;2023-04-04T00:44:47;93486.47;;;9.69;83.65
41062;BME280;26812;42.662;23.352;2023-04-04T00:47:12;93479.00;;;9.78;82.69
41062;BME280;26812;42.662;23.352;2023-04-04T00:49:38;93484.50;;;9.81;82.69
41062;BME280;26812;42.662;23.352;2023-04-04T00:52:03;93474.06;;;9.64;82.36
41062;BME280;26812;42.662;23.352;2023-04-04T00:54:31;93466.97;;;9.87;82.01
41062;BME280;26812;42.662;23.352;2023-04-04T00:56:56;93468.59;;;9.60;82.58
41062;BME280;26812;42.662;23.352;2023-04-04T00:59:22;93470.94;;;9.62;82.19
41062;BME280;26812;42.662;23.352;2023-04-04T01:01:49;93468.09;;;9.86;81.16
41062;BME280;26812;42.662;23.352;2023-04-04T01:04:15;93470.75;;;9.55;79.97
41062;BME280;26812;42.662;23.352;2023-04-04T01:06:41;93470.34;;;9.25;81.37
41062;BME280;26812;42.662;23.352;2023-04-04T01:09:06;93480.50;;;9.03;81.98
41062;BME280;26812;42.662;23.352;2023-04-04T01:11:32;93480.84;;;9.02;83.50
41062;BME280;26812;42.662;23.352;2023-04-04T01:13:57;93482.06;;;9.32;82.30
41062;BME280;26812;42.662;23.352;2023-04-04T01:16:22;93484.59;;;9.41;82.94
41062;BME280;26812;42.662;23.352;2023-04-04T01:18:48;93482.28;;;9.71;81.87
41062;BME280;26812;42.662;23.352;2023-04-04T01:21:14;93486.16;;;9.42;80.57
41062;BME280;26812;42.662;23.352;2023-04-04T01:26:15;93488.75;;;9.39;83.24
41062;BME280;26812;42.662;23.352;2023-04-04T01:28:40;93485.56;;;9.49;81.98
41062;BME280;26812;42.662;23.352;2023-04-04T01:31:06;93494.97;;;9.71;81.76
41062;BME280;26812;42.662;23.352;2023-04-04T01:33:39;93490.22;;;9.36;82.47
41062;BME280;26812;42.662;23.352;2023-04-04T01:41:11;93494.81;;;9.08;85.30
41062;BME280;26812;42.662;23.352;2023-04-04T01:43:44;93487.56;;;8.96;85.34
41062;BME280;26812;42.662;23.352;2023-04-04T01:46:16;93473.91;;;9.29;82.97
41062;BME280;26812;42.662;23.352;2023-04-04T01:48:43;93471.03;;;9.22;83.27
41062;BME280;26812;42.662;23.352;2023-04-04T01:51:09;93463.50;;;9.27;83.20
41062;BME280;26812;42.662;23.352;2023-04-04T01:53:34;93460.13;;;9.30;82.45
41062;BME280;26812;42.662;23.352;2023-04-04T01:56:00;93446.25;;;9.44;81.78
41062;BME280;26812;42.662;23.352;2023-04-04T01:58:25;93439.41;;;9.31;81.97
41062;BME280;26812;42.662;23.352;2023-04-04T02:00:50;93440.13;;;9.16;82.23
41062;BME280;26812;42.662;23.352;2023-04-04T02:03:16;93449.19;;;9.23;81.03
41062;BME280;26812;42.662;23.352;2023-04-04T02:05:41;93449.38;;;9.30;80.92
41062;BME280;26812;42.662;23.352;2023-04-04T02:08:06;93449.03;;;9.32;79.90
41062;BME280;26812;42.662;23.352;2023-04-04T02:10:32;93442.78;;;9.00;80.29
41062;BME280;26812;42.662;23.352;2023-04-04T02:12:57;93442.16;;;8.91;80.04
41062;BME280;26812;42.662;23.352;2023-04-04T02:15:22;93446.44;;;8.80;80.56
41062;BME280;26812;42.662;23.352;2023-04-04T02:17:49;93441.31;;;9.02;80.24
41062;BME280;26812;42.662;23.352;2023-04-04T02:20:14;93440.81;;;9.13;79.56
41062;BME280;26812;42.662;23.352;2023-04-04T02:22:40;93443.25;;;9.18;79.28
41062;BME280;26812;42.662;23.352;2023-04-04T02:25:05;93443.03;;;9.23;78.56
41062;BME280;26812;42.662;23.352;2023-04-04T02:27:31;93434.38;;;9.01;78.90
41062;BME280;26812;42.662;23.352;2023-04-04T02:29:56;93434.28;;;8.98;79.11
41062;BME280;26812;42.662;23.352;2023-04-04T02:32:22;93438.34;;;9.20;78.11
41062;BME280;26812;42.662;23.352;2023-04-04T02:34:47;93442.34;;;9.26;77.97
41062;BME280;26812;42.662;23.352;2023-04-04T02:37:12;93432.75;;;9.13;77.35
41062;BME280;26812;42.662;23.352;2023-04-04T02:39:38;93438.47;;;9.11;78.62
41062;BME280;26812;42.662;23.352;2023-04-04T02:42:03;93442.81;;;9.16;76.36
41062;BME280;26812;42.662;23.352;2023-04-04T02:44:35;93443.47;;;9.25;76.63
41062;BME280;26812;42.662;23.352;2023-04-04T02:47:01;93446.16;;;9.25;76.31
41062;BME280;26812;42.662;23.352;2023-04-04T02:49:26;93441.41;;;9.34;76.48
41062;BME280;26812;42.662;23.352;2023-04-04T02:51:53;93446.34;;;9.32;76.82
41062;BME280;26812;42.662;23.352;2023-04-04T02:54:18;93442.72;;;9.12;78.11
41062;BME280;26812;42.662;23.352;2023-04-04T02:56:44;93445.50;;;9.16;77.81
41062;BME280;26812;42.662;23.352;2023-04-04T02:59:09;93439.56;;;9.22;77.86
41062;BME280;26812;42.662;23.352;2023-04-04T03:01:35;93432.50;;;9.18;78.11
41062;BME280;26812;42.662;23.352;2023-04-04T03:04:00;93440.03;;;9.12;78.03
41062;BME280;26812;42.662;23.352;2023-04-04T03:06:30;93438.09;;;9.25;76.92
41062;BME280;26812;42.662;23.352;2023-04-04T03:08:55;93439.41;;;9.47;77.04
41062;BME280;26812;42.662;23.352;2023-04-04T03:11:20;93439.88;;;9.64;77.30
41062;BME280;26812;42.662;23.352;2023-04-04T03:13:46;93451.56;;;9.41;77.83
41062;BME280;26812;42.662;23.352;2023-04-04T03:16:11;93448.16;;;9.44;78.02
41062;BME280;26812;42.662;23.352;2023-04-04T03:18:39;93453.84;;;9.54;77.43
41062;BME280;26812;42.662;23.352;2023-04-04T03:21:04;93450.72;;;9.52;77.74
41062;BME280;26812;42.662;23.352;2023-04-04T03:23:29;93445.34;;;9.52;76.39
41062;BME280;26812;42.662;23.352;2023-04-04T03:25:55;93444.38;;;9.60;76.41
41062;BME280;26812;42.662;23.352;2023-04-04T03:28:20;93447.44;;;9.90;77.93
41062;BME280;26812;42.662;23.352;2023-04-04T03:30:46;93444.22;;;9.53;78.68
41062;BME280;26812;42.662;23.352;2023-04-04T03:33:11;93453.50;;;9.72;78.45
41062;BME280;26812;42.662;23.352;2023-04-04T03:35:37;93448.16;;;9.44;79.76
41062;BME280;26812;42.662;23.352;2023-04-04T03:38:03;93450.66;;;9.96;78.75
41062;BME280;26812;42.662;23.352;2023-04-04T03:40:29;93466.63;;;9.89;79.16
41062;BME280;26812;42.662;23.352;2023-04-04T03:42:54;93457.88;;;9.48;81.33
41062;BME280;26812;42.662;23.352;2023-04-04T03:45:20;93460.56;;;9.48;81.67
41062;BME280;26812;42.662;23.352;2023-04-04T03:47:45;93456.16;;;9.40;79.20
41062;BME280;26812;42.662;23.352;2023-04-04T03:50:11;93461.47;;;9.52;78.72
41062;BME280;26812;42.662;23.352;2023-04-04T03:52:39;93463.13;;;9.73;79.11
41062;BME280;26812;42.662;23.352;2023-04-04T03:55:05;93464.09;;;9.64;79.88
41062;BME280;26812;42.662;23.352;2023-04-04T03:57:31;93467.03;;;9.59;80.11
41062;BME280;26812;42.662;23.352;2023-04-04T03:59:56;93453.16;;;9.57;80.43
41062;BME280;26812;42.662;23.352;2023-04-04T04:02:22;93455.59;;;9.94;78.34
41062;BME280;26812;42.662;23.352;2023-04-04T04:04:47;93454.28;;;9.56;79.53
41062;BME280;26812;42.662;23.352;2023-04-04T04:07:12;93460.00;;;9.71;80.16
41062;BME280;26812;42.662;23.352;2023-04-04T04:09:37;93453.66;;;9.79;79.66
41062;BME280;26812;42.662;23.352;2023-04-04T04:12:03;93449.19;;;9.83;79.70
41062;BME280;26812;42.662;23.352;2023-04-04T04:14:29;93453.25;;;9.77;80.03
41062;BME280;26812;42.662;23.352;2023-04-04T04:16:54;93449.41;;;9.78;79.67
41062;BME280;26812;42.662;23.352;2023-04-04T04:19:19;93447.00;;;9.73;80.36
41062;BME280;26812;42.662;23.352;2023-04-04T04:21:45;93459.22;;;10.17;79.15
41062;BME280;26812;42.662;23.352;2023-04-04T04:24:10;93459.75;;;9.76;81.40
41062;BME280;26812;42.662;23.352;2023-04-04T04:26:35;93473.16;;;9.44;81.82
41062;BME280;26812;42.662;23.352;2023-04-04T04:29:00;93473.53;;;9.58;83.69
41062;BME280;26812;42.662;23.352;2023-04-04T04:31:26;93478.88;;;9.43;82.06
41062;BME280;26812;42.662;23.352;2023-04-04T04:33:51;93481.44;;;9.23;83.61
41062;BME280;26812;42.662;23.352;2023-04-04T04:36:17;93481.56;;;9.15;83.41
41062;BME280;26812;42.662;23.352;2023-04-04T04:38:42;93479.56;;;9.12;83.13
41062;BME280;26812;42.662;23.352;2023-04-04T04:41:08;93487.00;;;9.02;83.23
41062;BME280;26812;42.662;23.352;2023-04-04T04:43:33;93489.34;;;9.04;82.38
41062;BME280;26812;42.662;23.352;2023-04-04T04:46:01;93484.22;;;9.27;84.10
41062;BME280;26812;42.662;23.352;2023-04-04T04:48:26;93487.34;;;9.29;83.11
41062;BME280;26812;42.662;23.352;2023-04-04T04:50:51;93488.91;;;9.30;83.40
41062;BME280;26812;42.662;23.352;2023-04-04T04:53:17;93491.88;;;9.41;82.52
41062;BME280;26812;42.662;23.352;2023-04-04T04:55:42;93489.53;;;9.99;81.37
41062;BME280;26812;42.662;23.352;2023-04-04T04:58:07;93509.50;;;10.13;79.43
41062;BME280;26812;42.662;23.352;2023-04-04T05:00:34;93509.84;;;9.80;81.05
41062;BME280;26812;42.662;23.352;2023-04-04T05:03:00;93512.34;;;9.45;84.06
41062;BME280;26812;42.662;23.352;2023-04-04T05:05:26;93508.78;;;9.41;84.17
41062;BME280;26812;42.662;23.352;2023-04-04T05:07:51;93514.41;;;9.36;84.74
41062;BME280;26812;42.662;23.352;2023-04-04T05:10:17;93509.72;;;9.61;84.86
41062;BME280;26812;42.662;23.352;2023-04-04T05:12:45;93518.03;;;9.56;84.52
41062;BME280;26812;42.662;23.352;2023-04-04T05:15:10;93514.09;;;9.81;85.08
41062;BME280;26812;42.662;23.352;2023-04-04T05:17:36;93529.34;;;10.09;83.83
41062;BME280;26812;42.662;23.352;2023-04-04T05:20:02;93533.44;;;10.03;82.54
41062;BME280;26812;42.662;23.352;2023-04-04T05:22:27;93534.44;;;10.26;81.67
41062;BME280;26812;42.662;23.352;2023-04-04T05:24:52;93532.41;;;10.07;81.68
41062;BME280;26812;42.662;23.352;2023-04-04T05:27:18;93536.50;;;10.33;81.82
41062;BME280;26812;42.662;23.352;2023-04-04T05:29:43;93533.06;;;10.48;79.81
41062;BME280;26812;42.662;23.352;2023-04-04T05:32:10;93533.56;;;10.22;81.59
41062;BME280;26812;42.662;23.352;2023-04-04T05:34:35;93535.53;;;10.09;81.84
41062;BME280;26812;42.662;23.352;2023-04-04T05:37:00;93534.81;;;9.96;82.49
41062;BME280;26812;42.662;23.352;2023-04-04T05:39:26;93533.22;;;10.39;80.84
41062;BME280;26812;42.662;23.352;2023-04-04T05:41:51;93535.75;;;10.48;79.92
41062;BME280;26812;42.662;23.352;2023-04-04T05:44:16;93541.38;;;10.27;80.74
41062;BME280;26812;42.662;23.352;2023-04-04T05:46:42;93540.34;;;10.32;81.59
41062;BME280;26812;42.662;23.352;2023-04-04T05:49:07;93538.47;;;10.67;82.10
41062;BME280;26812;42.662;23.352;2023-04-04T05:51:32;93553.22;;;10.89;81.22
41062;BME280;26812;42.662;23.352;2023-04-04T05:53:57;93548.03;;;11.15;77.57
41062;BME280;26812;42.662;23.352;2023-04-04T05:56:23;93543.41;;;11.16;77.34
41062;BME280;26812;42.662;23.352;2023-04-04T05:58:49;93545.19;;;11.08;77.12
41062;BME280;26812;42.662;23.352;2023-04-04T06:01:15;93541.09;;;10.79;77.96
41062;BME280;26812;42.662;23.352;2023-04-04T06:03:40;93546.63;;;10.71;78.89
41062;BME280;26812;42.662;23.352;2023-04-04T06:06:05;93548.81;;;10.65;78.62
41062;BME280;26812;42.662;23.352;2023-04-04T06:08:31;93556.16;;;10.49;79.41
41062;BME280;26812;42.662;23.352;2023-04-04T06:10:56;93552.41;;;10.38;81.39
41062;BME280;26812;42.662;23.352;2023-04-04T06:13:21;93555.84;;;10.85;79.34
41062;BME280;26812;42.662;23.352;2023-04-04T06:15:47;93556.69;;;10.89;79.08
41062;BME280;26812;42.662;23.352;2023-04-04T06:18:12;93558.03;;;11.15;77.68
41062;BME280;26812;42.662;23.352;2023-04-04T06:20:37;93553.50;;;11.19;77.17
41062;BME280;26812;42.662;23.352;2023-04-04T06:23:02;93560.06;;;11.02;76.91
41062;BME280;26812;42.662;23.352;2023-04-04T06:25:29;93550.59;;;10.93;78.99
41062;BME280;26812;42.662;23.352;2023-04-04T06:27:54;93564.72;;;11.40;78.83
41062;BME280;26812;42.662;23.352;2023-04-04T06:30:20;93566.28;;;11.41;77.81
41062;BME280;26812;42.662;23.352;2023-04-04T06:32:45;93570.03;;;11.17;76.78
41062;BME280;26812;42.662;23.352;2023-04-04T06:35:10;93576.31;;;11.06;76.76
41062;BME280;26812;42.662;23.352;2023-04-04T06:37:36;93575.91;;;11.04;77.45
41062;BME280;26812;42.662;23.352;2023-04-04T06:40:01;93585.13;;;11.03;77.66
41062;BME280;26812;42.662;23.352;2023-04-04T06:42:26;93586.00;;;10.91;77.28
41062;BME280;26812;42.662;23.352;2023-04-04T06:44:52;93602.06;;;11.03;78.39
41062;BME280;26812;42.662;23.352;2023-04-04T06:47:17;93608.41;;;11.30;75.87
41062;BME280;26812;42.662;23.352;2023-04-04T06:49:42;93610.66;;;11.09;74.07
41062;BME280;26812;42.662;23.352;2023-04-04T06:52:07;93609.50;;;10.15;72.86
41062;BME280;26812;42.662;23.352;2023-04-04T06:54:33;93622.13;;;8.91;75.11
41062;BME280;26812;42.662;23.352;2023-04-04T06:56:58;93620.41;;;8.86;76.09
41062;BME280;26812;42.662;23.352;2023-04-04T06:59:23;93640.13;;;8.90;73.74
41062;BME280;26812;42.662;23.352;2023-04-04T07:01:49;93648.44;;;7.95;75.71
41062;BME280;26812;42.662;23.352;2023-04-04T07:04:17;93655.53;;;7.78;75.66
41062;BME280;26812;42.662;23.352;2023-04-04T07:06:42;93667.13;;;7.70;76.25
41062;BME280;26812;42.662;23.352;2023-04-04T07:09:08;93673.91;;;7.05;76.80
41062;BME280;26812;42.662;23.352;2023-04-04T07:11:33;93679.53;;;6.83;75.78
41062;BME280;26812;42.662;23.352;2023-04-04T07:13:58;93691.31;;;6.52;78.00
41062;BME280;26812;42.662;23.352;2023-04-04T07:16:23;93695.34;;;6.12;78.63
41062;BME280;26812;42.662;23.352;2023-04-04T07:18:49;93701.81;;;5.94;77.83
41062;BME280;26812;42.662;23.352;2023-04-04T07:21:15;93707.91;;;6.20;76.68
41062;BME280;26812;42.662;23.352;2023-04-04T07:23:41;93707.03;;;6.54;76.19
41062;BME280;26812;42.662;23.352;2023-04-04T07:26:06;93708.69;;;6.76;75.29
41062;BME280;26812;42.662;23.352;2023-04-04T07:28:32;93712.66;;;6.61;75.61
41062;BME280;26812;42.662;23.352;2023-04-04T07:30:59;93714.59;;;6.52;75.53
41062;BME280;26812;42.662;23.352;2023-04-04T07:33:28;93727.06;;;6.39;75.81
41062;BME280;26812;42.662;23.352;2023-04-04T07:35:53;93733.88;;;6.02;76.99
41062;BME280;26812;42.662;23.352;2023-04-04T07:38:19;93729.91;;;6.43;76.17
41062;BME280;26812;42.662;23.352;2023-04-04T07:40:44;93732.59;;;6.81;75.26
41062;BME280;26812;42.662;23.352;2023-04-04T07:43:09;93732.75;;;6.12;74.92
41062;BME280;26812;42.662;23.352;2023-04-04T07:45:41;93738.28;;;6.24;75.23
41062;BME280;26812;42.662;23.352;2023-04-04T07:48:06;93733.94;;;6.58;73.43
41062;BME280;26812;42.662;23.352;2023-04-04T07:50:32;93741.72;;;6.33;73.84
41062;BME280;26812;42.662;23.352;2023-04-04T07:52:57;93746.00;;;6.00;74.83
41062;BME280;26812;42.662;23.352;2023-04-04T07:55:22;93735.91;;;5.53;75.54
41062;BME280;26812;42.662;23.352;2023-04-04T07:57:49;93714.22;;;5.38;76.25
41062;BME280;26812;42.662;23.352;2023-04-04T08:00:14;93743.94;;;5.88;76.44
41062;BME280;26812;42.662;23.352;2023-04-04T08:02:42;93737.19;;;6.08;75.56
41062;BME280;26812;42.662;23.352;2023-04-04T08:05:07;93755.59;;;6.09;74.12
41062;BME280;26812;42.662;23.352;2023-04-04T08:07:33;93764.84;;;5.60;74.26
41062;BME280;26812;42.662;23.352;2023-04-04T08:09:58;93761.06;;;5.78;75.15
41062;BME280;26812;42.662;23.352;2023-04-04T08:12:23;93763.25;;;5.76;74.14
41062;BME280;26812;42.662;23.352;2023-04-04T08:14:49;93767.66;;;5.81;74.84
41062;BME280;26812;42.662;23.352;2023-04-04T08:17:14;93770.84;;;5.83;73.32
41062;BME280;26812;42.662;23.352;2023-04-04T08:19:43;93762.00;;;5.56;73.19
41062;BME280;26812;42.662;23.352;2023-04-04T08:22:08;93777.72;;;5.75;72.61
41062;BME280;26812;42.662;23.352;2023-04-04T08:24:33;93780.41;;;5.75;72.40
41062;BME280;26812;42.662;23.352;2023-04-04T08:26:58;93797.06;;;5.81;71.90
41062;BME280;26812;42.662;23.352;2023-04-04T08:29:24;93790.31;;;5.75;72.38
41062;BME280;26812;42.662;23.352;2023-04-04T08:31:50;93795.53;;;5.97;72.14
41062;BME280;26812;42.662;23.352;2023-04-04T08:34:17;93803.72;;;6.09;72.88
41062;BME280;26812;42.662;23.352;2023-04-04T08:36:44;93802.63;;;6.02;71.88
41062;BME280;26812;42.662;23.352;2023-04-04T08:39:09;93805.88;;;5.81;71.64
41062;BME280;26812;42.662;23.352;2023-04-04T08:41:35;93810.06;;;5.48;72.68
41062;BME280;26812;42.662;23.352;2023-04-04T08:44:01;93806.50;;;5.61;72.83
41062;BME280;26812;42.662;23.352;2023-04-04T08:46:28;93809.94;;;5.53;72.71
41062;BME280;26812;42.662;23.352;2023-04-04T08:48:53;93810.69;;;5.36;73.45
41062;BME280;26812;42.662;23.352;2023-04-04T08:51:20;93817.72;;;5.23;72.99
41062;BME280;26812;42.662;23.352;2023-04-04T08:53:46;93816.75;;;5.19;73.08
41062;BME280;26812;42.662;23.352;2023-04-04T08:56:12;93827.13;;;5.21;73.12
41062;BME280;26812;42.662;23.352;2023-04-04T08:58:38;93831.81;;;5.15;74.03
41062;BME280;26812;42.662;23.352;2023-04-04T09:01:04;93829.75;;;5.12;74.74
41062;BME280;26812;42.662;23.352;2023-04-04T09:03:29;93828.47;;;5.01;74.19
41062;BME280;26812;42.662;23.352;2023-04-04T09:05:56;93837.88;;;4.98;73.92
41062;BME280;26812;42.662;23.352;2023-04-04T09:08:22;93836.13;;;4.94;74.63
41062;BME280;26812;42.662;23.352;2023-04-04T09:10:50;93841.72;;;4.84;74.37
41062;BME280;26812;42.662;23.352;2023-04-04T09:13:16;93836.03;;;5.08;74.87
41062;BME280;26812;42.662;23.352;2023-04-04T09:15:49;93844.91;;;5.25;74.24
41062;BME280;26812;42.662;23.352;2023-04-04T09:18:15;93841.31;;;5.30;74.00
41062;BME280;26812;42.662;23.352;2023-04-04T09:20:41;93831.81;;;5.64;74.02
41062;BME280;26812;42.662;23.352;2023-04-04T09:23:07;93844.63;;;5.93;73.76
41062;BME280;26812;42.662;23.352;2023-04-04T09:25:33;93830.06;;;5.68;73.71
41062;BME280;26812;42.662;23.352;2023-04-04T09:27:59;93845.16;;;5.64;72.62
41062;BME280;26812;42.662;23.352;2023-04-04T09:30:27;93850.50;;;5.55;72.20
41062;BME280;26812;42.662;23.352;2023-04-04T09:32:52;93850.19;;;5.56;72.12
41062;BME280;26812;42.662;23.352;2023-04-04T09:35:18;93856.31;;;5.66;71.03
41062;BME280;26812;42.662;23.352;2023-04-04T09:37:43;93863.13;;;5.32;71.71
41062;BME280;26812;42.662;23.352;2023-04-04T09:40:10;93851.72;;;5.49;72.05
41062;BME280;26812;42.662;23.352;2023-04-04T09:42:35;93846.03;;;5.90;70.64
41062;BME280;26812;42.662;23.352;2023-04-04T09:45:01;93848.69;;;6.07;69.47
41062;BME280;26812;42.662;23.352;2023-04-04T09:47:26;93864.63;;;5.55;69.61
41062;BME280;26812;42.662;23.352;2023-04-04T09:49:52;93858.44;;;4.98;69.06
41062;BME280;26812;42.662;23.352;2023-04-04T09:52:21;93860.13;;;5.25;69.58
41062;BME280;26812;42.662;23.352;2023-04-04T09:54:55;93851.81;;;5.26;70.93
41062;BME280;26812;42.662;23.352;2023-04-04T09:57:22;93853.50;;;5.62;69.67
41062;BME280;26812;42.662;23.352;2023-04-04T09:59:47;93862.34;;;5.32;69.89
41062;BME280;26812;42.662;23.352;2023-04-04T10:02:13;93854.00;;;5.24;68.73
41062;BME280;26812;42.662;23.352;2023-04-04T10:04:38;93856.47;;;5.52;69.31
41062;BME280;26812;42.662;23.352;2023-04-04T10:07:03;93861.94;;;6.30;68.21
41062;BME280;26812;42.662;23.352;2023-04-04T10:09:29;93869.31;;;6.24;66.78
41062;BME280;26812;42.662;23.352;2023-04-04T10:12:06;93865.84;;;5.98;67.77
41062;BME280;26812;42.662;23.352;2023-04-04T10:14:35;93875.50;;;5.68;68.96
41062;BME280;26812;42.662;23.352;2023-04-04T10:17:05;93874.44;;;5.29;70.04
41062;BME280;26812;42.662;23.352;2023-04-04T10:19:32;93882.06;;;5.53;69.07
41062;BME280;26812;42.662;23.352;2023-04-04T10:21:58;93889.34;;;5.78;69.77
41062;BME280;26812;42.662;23.352;2023-04-04T10:24:25;93882.38;;;6.34;68.97
41062;BME280;26812;42.662;23.352;2023-04-04T10:26:51;93892.94;;;6.74;67.27
41062;BME280;26812;42.662;23.352;2023-04-04T10:29:18;93890.84;;;6.02;68.82
41062;BME280;26812;42.662;23.352;2023-04-04T10:31:43;93893.34;;;5.89;68.02
41062;BME280;26812;42.662;23.352;2023-04-04T10:36:44;93908.53;;;6.54;67.63
41062;BME280;26812;42.662;23.352;2023-04-04T10:41:44;93898.09;;;5.93;67.24
41062;BME280;26812;42.662;23.352;2023-04-04T10:44:11;93901.72;;;6.05;68.95
41062;BME280;26812;42.662;23.352;2023-04-04T10:46:38;93910.78;;;5.87;66.99
41062;BME280;26812;42.662;23.352;2023-04-04T10:49:05;93908.78;;;5.93;67.91
41062;BME280;26812;42.662;23.352;2023-04-04T10:51:31;93909.44;;;6.24;67.56
41062;BME280;26812;42.662;23.352;2023-04-04T10:53:56;93916.63;;;5.98;67.26
41062;BME280;26812;42.662;23.352;2023-04-04T10:56:22;93915.59;;;5.68;66.44
41062;BME280;26812;42.662;23.352;2023-04-04T10:58:48;93928.41;;;5.17;69.00
41062;BME280;26812;42.662;23.352;2023-04-04T11:01:14;93925.53;;;5.36;68.15
41062;BME280;26812;42.662;23.352;2023-04-04T11:04:14;93923.91;;;5.26;68.00
41062;BME280;26812;42.662;23.352;2023-04-04T11:12:08;93929.63;;;5.11;69.08
41062;BME280;26812;42.662;23.352;2023-04-04T11:14:34;93931.50;;;5.33;68.30
41062;BME280;26812;42.662;23.352;2023-04-04T11:17:00;93929.28;;;5.35;67.34
41062;BME280;26812;42.662;23.352;2023-04-04T11:19:29;93934.50;;;5.40;68.16
41062;BME280;26812;42.662;23.352;2023-04-04T11:21:55;93934.09;;;5.55;67.32
41062;BME280;26812;42.662;23.352;2023-04-04T11:24:21;93933.53;;;5.76;67.14
41062;BME280;26812;42.662;23.352;2023-04-04T11:26:47;93939.13;;;5.97;67.43
41062;BME280;26812;42.662;23.352;2023-04-04T11:29:18;93943.00;;;5.82;67.36
41062;BME280;26812;42.662;23.352;2023-04-04T11:31:44;93943.88;;;5.60;67.09
41062;BME280;26812;42.662;23.352;2023-04-04T11:44:24;93953.00;;;6.07;67.81
41062;BME280;26812;42.662;23.352;2023-04-04T11:49:35;93959.72;;;5.25;68.98
41062;BME280;26812;42.662;23.352;2023-04-04T11:52:04;93951.34;;;5.49;68.66
41062;BME280;26812;42.662;23.352;2023-04-04T11:54:34;93953.66;;;5.73;68.79
41062;BME280;26812;42.662;23.352;2023-04-04T11:57:00;93960.28;;;5.45;68.92
41062;BME280;26812;42.662;23.352;2023-04-04T11:59:27;93957.56;;;5.36;69.86
41062;BME280;26812;42.662;23.352;2023-04-04T12:01:52;93956.97;;;5.39;69.93
41062;BME280;26812;42.662;23.352;2023-04-04T12:04:18;93951.94;;;5.38;69.20
41062;BME280;26812;42.662;23.352;2023-04-04T12:06:54;93948.41;;;5.59;69.06
41062;BME280;26812;42.662;23.352;2023-04-04T12:09:19;93954.22;;;5.93;67.60
41062;BME280;26812;42.662;23.352;2023-04-04T12:11:46;93955.69;;;6.16;67.10
41062;BME280;26812;42.662;23.352;2023-04-04T12:14:30;93956.50;;;6.25;66.72
41062;BME280;26812;42.662;23.352;2023-04-04T12:16:57;93960.91;;;6.38;66.01
41062;BME280;26812;42.662;23.352;2023-04-04T12:19:24;93954.75;;;6.20;65.87
41062;BME280;26812;42.662;23.352;2023-04-04T12:21:50;93953.94;;;6.11;65.74
41062;BME280;26812;42.662;23.352;2023-04-04T12:24:16;93962.59;;;5.69;67.64
41062;BME280;26812;42.662;23.352;2023-04-04T12:26:44;93962.63;;;5.77;68.02
41062;BME280;26812;42.662;23.352;2023-04-04T12:29:10;93959.78;;;6.22;67.63
41062;BME280;26812;42.662;23.352;2023-04-04T12:31:37;93965.31;;;6.34;65.51
41062;BME280;26812;42.662;23.352;2023-04-04T12:34:03;93971.16;;;5.88;66.72
41062;BME280;26812;42.662;23.352;2023-04-04T12:36:28;93958.38;;;5.76;67.52
41062;BME280;26812;42.662;23.352;2023-04-04T12:38:55;93969.50;;;5.61;67.85
41062;BME280;26812;42.662;23.352;2023-04-04T12:41:22;93965.25;;;5.60;67.93
41062;BME280;26812;42.662;23.352;2023-04-04T12:43:47;93975.72;;;4.94;69.73
41062;BME280;26812;42.662;23.352;2023-04-04T12:46:13;93967.56;;;4.77;70.07
41062;BME280;26812;42.662;23.352;2023-04-04T12:48:38;93979.75;;;4.70;70.65
41062;BME280;26812;42.662;23.352;2023-04-04T12:51:10;93981.22;;;4.76;70.66
41062;BME280;26812;42.662;23.352;2023-04-04T12:53:48;93980.69;;;4.65;71.87
41062;BME280;26812;42.662;23.352;2023-04-04T12:56:15;93972.25;;;4.35;72.03
41062;BME280;26812;42.662;23.352;2023-04-04T12:58:40;93982.38;;;4.61;71.68
41062;BME280;26812;42.662;23.352;2023-04-04T13:01:10;93988.69;;;5.10;71.55
41062;BME280;26812;42.662;23.352;2023-04-04T13:03:35;93996.50;;;5.06;68.45
41062;BME280;26812;42.662;23.352;2023-04-04T13:06:01;93985.56;;;5.16;68.77
41062;BME280;26812;42.662;23.352;2023-04-04T13:08:27;94003.13;;;4.64;69.57
41062;BME280;26812;42.662;23.352;2023-04-04T13:13:30;94004.22;;;4.49;69.69
41062;BME280;26812;42.662;23.352;2023-04-04T13:15:56;94015.19;;;4.61;69.03
41062;BME280;26812;42.662;23.352;2023-04-04T13:18:22;94015.38;;;4.01;71.38
41062;BME280;26812;42.662;23.352;2023-04-04T13:20:49;94005.28;;;3.85;71.50
41062;BME280;26812;42.662;23.352;2023-04-04T13:23:15;94004.72;;;4.01;71.07
41062;BME280;26812;42.662;23.352;2023-04-04T13:25:40;94010.09;;;4.38;70.48
41062;BME280;26812;42.662;23.352;2023-04-04T13:28:06;94023.59;;;4.41;70.56